Time;durP1;ratioP1;P1;durP2;ratioP2;P2;SDS_P1;SDS_P2;PMS_P1;PMS_P2;Temp;Humidity;BMP_temperature;BMP_pressure;BME280_temperature;BME280_humidity;BME280_pressure;Samples;Min_cycle;Max_cycle;Signal;HPM_P1;HPM_P2
2022/04/05 00:00:04;;;;;;;4.90;1.75;;;7.10;99.90;;;;;;5134879;27;20055;-66
2022/04/05 00:02:30;;;;;;;5.13;1.45;;;7.00;99.90;;;;;;5116843;27;20402;-66
2022/04/05 00:04:55;;;;;;;4.63;1.50;;;7.00;99.90;;;;;;5119442;27;20051;-65
2022/04/05 00:07:21;;;;;;;4.15;1.67;;;7.00;99.90;;;;;;5130869;27;20053;-67
2022/04/05 00:09:46;;;;;;;3.75;1.63;;;7.00;99.90;;;;;;5130815;27;20071;-67
2022/04/05 00:12:13;;;;;;;6.55;1.60;;;7.10;99.90;;;;;;5151462;27;20054;-67
2022/04/05 00:14:38;;;;;;;3.33;1.30;;;7.00;99.90;;;;;;5129616;28;20344;-67
2022/04/05 00:17:04;;;;;;;5.97;1.92;;;7.00;99.90;;;;;;5115493;28;20058;-67
2022/04/05 00:19:30;;;;;;;6.28;1.50;;;6.90;99.90;;;;;;5132769;28;20065;-66
2022/04/05 00:21:56;;;;;;;5.22;1.50;;;6.90;99.90;;;;;;5143018;27;20211;-67
2022/04/05 00:24:23;;;;;;;3.92;1.38;;;6.90;99.90;;;;;;5131633;27;20448;-70
2022/04/05 00:26:48;;;;;;;2.13;1.30;;;7.00;99.90;;;;;;5126664;27;20047;-67
2022/04/05 00:29:14;;;;;;;3.30;1.20;;;6.90;99.90;;;;;;5137889;27;20394;-67
2022/04/05 00:31:40;;;;;;;5.43;1.73;;;6.90;99.90;;;;;;5135779;27;20125;-67
2022/04/05 00:34:05;;;;;;;2.90;1.20;;;6.80;99.90;;;;;;5151952;27;20546;-66
2022/04/05 00:36:31;;;;;;;6.22;1.85;;;6.80;99.90;;;;;;5138120;27;20046;-68
2022/04/05 00:38:56;;;;;;;5.65;1.73;;;6.80;99.90;;;;;;5136363;27;20130;-67
2022/04/05 00:41:22;;;;;;;3.47;1.13;;;6.80;99.90;;;;;;5152239;27;20055;-68
2022/04/05 00:43:47;;;;;;;4.50;1.25;;;6.90;99.90;;;;;;5147891;27;20035;-66
2022/04/05 00:46:13;;;;;;;4.20;1.15;;;6.80;99.90;;;;;;5151065;27;20051;-66
2022/04/05 00:48:57;;;;;;;2.33;1.40;;;6.80;99.90;;;;;;5149831;27;20059;-67
2022/04/05 00:51:24;;;;;;;4.18;1.30;;;6.70;99.90;;;;;;5137244;27;20127;-67
2022/04/05 00:54:10;;;;;;;2.90;1.10;;;6.70;99.90;;;;;;5118671;27;20051;-67
2022/04/05 00:56:36;;;;;;;1.45;0.90;;;6.70;99.90;;;;;;5143206;27;20050;-67
2022/04/05 00:59:03;;;;;;;4.03;1.23;;;6.70;99.90;;;;;;5120246;27;20046;-66
2022/04/05 01:01:30;;;;;;;3.92;1.50;;;6.70;99.90;;;;;;5157075;27;20069;-66
2022/04/05 01:03:56;;;;;;;2.63;1.10;;;6.70;99.90;;;;;;5156034;27;20059;-68
2022/04/05 01:06:31;;;;;;;3.25;1.00;;;6.70;99.90;;;;;;5123506;27;20038;-66
2022/04/05 01:08:57;;;;;;;5.75;1.35;;;6.70;99.90;;;;;;5139923;27;20055;-67
2022/04/05 01:11:24;;;;;;;4.82;1.17;;;6.70;99.90;;;;;;5134247;27;20054;-67
2022/04/05 01:13:50;;;;;;;3.08;1.33;;;6.70;99.90;;;;;;5136118;27;20494;-67
2022/04/05 01:16:16;;;;;;;2.92;1.13;;;6.60;99.90;;;;;;5103172;27;20058;-68
2022/04/05 01:18:42;;;;;;;2.03;1.25;;;6.60;99.90;;;;;;5135717;27;20395;-67
2022/04/05 01:21:08;;;;;;;4.55;1.10;;;6.60;99.90;;;;;;5153979;27;20043;-65
2022/04/05 01:23:33;;;;;;;2.05;1.23;;;6.70;99.90;;;;;;5136754;27;20042;-66
2022/04/05 01:26:00;;;;;;;6.40;1.50;;;6.60;99.90;;;;;;5137586;27;20105;-66
2022/04/05 01:28:26;;;;;;;3.97;1.40;;;6.60;99.90;;;;;;5119199;27;20059;-66
2022/04/05 01:30:52;;;;;;;5.45;1.55;;;6.60;99.90;;;;;;5137150;27;20072;-66
2022/04/05 01:33:18;;;;;;;4.38;1.20;;;6.60;99.90;;;;;;5149036;27;20059;-67
2022/04/05 01:35:44;;;;;;;4.40;1.10;;;6.70;99.90;;;;;;5136768;27;20130;-66
2022/04/05 01:38:10;;;;;;;4.70;1.45;;;6.60;99.90;;;;;;5117312;27;20067;-67
2022/04/05 01:40:38;;;;;;;4.22;1.20;;;6.60;99.90;;;;;;5121742;27;20050;-67
2022/04/05 01:43:04;;;;;;;5.10;1.27;;;6.60;99.90;;;;;;5134752;27;20046;-66
2022/04/05 01:45:30;;;;;;;2.30;1.00;;;6.60;99.90;;;;;;5129348;27;20090;-67
2022/04/05 01:47:56;;;;;;;4.50;2.05;;;6.60;99.90;;;;;;5117285;27;20096;-66
2022/04/05 01:50:21;;;;;;;3.78;1.17;;;6.60;99.90;;;;;;5117743;27;20047;-67
2022/04/05 01:52:47;;;;;;;2.90;1.25;;;6.60;99.90;;;;;;5151508;27;20065;-68
2022/04/05 01:55:13;;;;;;;5.90;1.40;;;6.60;99.90;;;;;;5148022;27;20074;-66
2022/04/05 01:57:38;;;;;;;3.53;1.17;;;6.60;99.90;;;;;;5142487;27;20461;-66
2022/04/05 02:00:07;;;;;;;8.00;1.52;;;6.60;99.90;;;;;;5137067;27;20038;-68
2022/04/05 02:02:32;;;;;;;2.35;1.23;;;6.60;99.90;;;;;;5129444;27;20459;-67
2022/04/05 02:04:58;;;;;;;2.50;1.30;;;6.60;99.90;;;;;;5129020;27;20122;-67
2022/04/05 02:07:23;;;;;;;4.85;1.48;;;6.50;99.90;;;;;;5130060;27;20054;-66
2022/04/05 02:09:50;;;;;;;5.18;1.75;;;6.60;99.90;;;;;;5117163;27;20099;-65
2022/04/05 02:12:16;;;;;;;5.32;1.48;;;6.50;99.90;;;;;;5116160;27;20062;-66
2022/04/05 02:14:43;;;;;;;6.30;1.30;;;6.50;99.90;;;;;;5153732;27;20095;-66
2022/04/05 02:17:09;;;;;;;6.18;1.35;;;6.60;99.90;;;;;;5149436;27;20039;-66
2022/04/05 02:19:36;;;;;;;4.45;1.17;;;6.50;99.90;;;;;;5151225;27;20055;-67
2022/04/05 02:22:02;;;;;;;3.75;1.17;;;6.50;99.90;;;;;;5135077;27;20047;-67
2022/04/05 02:24:28;;;;;;;6.32;1.60;;;6.50;99.90;;;;;;5133503;27;20057;-66
2022/04/05 02:26:54;;;;;;;6.63;1.80;;;6.40;99.90;;;;;;5136263;27;20054;-67
2022/04/05 02:29:20;;;;;;;5.15;1.42;;;6.50;99.90;;;;;;5127716;27;20123;-67
2022/04/05 02:31:45;;;;;;;5.55;1.88;;;6.50;99.90;;;;;;5151193;27;20043;-67
2022/04/05 02:34:11;;;;;;;5.43;1.45;;;6.50;99.90;;;;;;5125494;27;20429;-66
2022/04/05 02:36:37;;;;;;;6.57;2.40;;;6.50;99.90;;;;;;5150470;27;20079;-67
2022/04/05 02:39:03;;;;;;;3.65;1.45;;;6.50;99.90;;;;;;5116200;27;20047;-69
2022/04/05 02:41:29;;;;;;;3.47;1.20;;;6.50;99.90;;;;;;5147216;27;20066;-67
2022/04/05 02:43:55;;;;;;;4.25;1.38;;;6.50;99.90;;;;;;5136514;27;20047;-67
2022/04/05 02:46:20;;;;;;;3.97;1.20;;;6.60;99.90;;;;;;5136100;27;20391;-67
2022/04/05 02:48:46;;;;;;;5.43;1.60;;;6.50;99.90;;;;;;5126127;27;20073;-66
2022/04/05 02:51:13;;;;;;;3.92;1.13;;;6.50;99.90;;;;;;5116722;27;20054;-68
2022/04/05 02:53:40;;;;;;;3.97;1.30;;;6.50;99.90;;;;;;5121883;27;20496;-67
2022/04/05 02:56:07;;;;;;;2.92;1.17;;;6.40;99.90;;;;;;5116550;28;20051;-66
2022/04/05 02:58:36;;;;;;;3.47;1.02;;;6.50;99.90;;;;;;5134173;27;20062;-65
2022/04/05 03:01:03;;;;;;;4.70;1.38;;;6.50;99.90;;;;;;5138778;27;20491;-67
2022/04/05 03:03:29;;;;;;;2.92;1.13;;;6.50;99.90;;;;;;5143597;27;20104;-66
2022/04/05 03:05:54;;;;;;;3.30;1.10;;;6.50;99.90;;;;;;5135738;27;20039;-67
2022/04/05 03:08:20;;;;;;;2.97;1.13;;;6.60;99.90;;;;;;5121058;27;20510;-66
2022/04/05 03:10:45;;;;;;;5.55;1.60;;;6.60;99.90;;;;;;5117828;27;20047;-66
2022/04/05 03:13:12;;;;;;;4.75;1.30;;;6.60;99.90;;;;;;5127097;27;20045;-66
2022/04/05 03:15:37;;;;;;;2.72;1.45;;;6.60;99.90;;;;;;5129889;27;20051;-67
2022/04/05 03:18:03;;;;;;;4.20;1.20;;;6.50;99.90;;;;;;5121808;27;20096;-67
2022/04/05 03:20:30;;;;;;;2.58;1.40;;;6.60;99.90;;;;;;5134217;27;20176;-67
2022/04/05 03:22:57;;;;;;;2.28;1.15;;;6.60;99.90;;;;;;5119427;27;20063;-67
2022/04/05 03:25:23;;;;;;;6.30;1.60;;;6.60;99.90;;;;;;5135749;27;20053;-67
2022/04/05 03:27:49;;;;;;;4.78;1.88;;;6.50;99.90;;;;;;5127101;27;20050;-67
2022/04/05 03:30:16;;;;;;;2.90;1.50;;;6.60;99.90;;;;;;5135339;27;20433;-66
2022/04/05 03:32:41;;;;;;;6.10;1.80;;;6.60;99.90;;;;;;5144115;27;20139;-67
2022/04/05 03:35:08;;;;;;;5.57;1.58;;;6.60;99.90;;;;;;5121899;27;20071;-68
2022/04/05 03:37:34;;;;;;;2.67;1.40;;;6.60;99.90;;;;;;5115190;27;20125;-65
2022/04/05 03:40:00;;;;;;;6.20;1.50;;;6.60;99.90;;;;;;5141191;27;20047;-66
2022/04/05 03:42:26;;;;;;;5.88;1.55;;;6.60;99.90;;;;;;5140548;27;20046;-66
2022/04/05 03:44:51;;;;;;;4.72;1.73;;;6.60;99.90;;;;;;5135310;27;20505;-68
2022/04/05 03:47:17;;;;;;;5.97;1.48;;;6.60;99.90;;;;;;5135837;27;20089;-67
2022/04/05 03:49:43;;;;;;;4.07;1.67;;;6.60;99.90;;;;;;5131082;27;20046;-66
2022/04/05 03:52:09;;;;;;;8.15;1.65;;;6.60;99.90;;;;;;5136065;27;20078;-65
2022/04/05 03:54:35;;;;;;;2.90;1.50;;;6.60;99.90;;;;;;5135112;27;20379;-65
2022/04/05 03:57:01;;;;;;;7.20;2.15;;;6.60;99.90;;;;;;5134996;27;20054;-69
2022/04/05 03:59:26;;;;;;;4.45;1.95;;;6.60;99.90;;;;;;5139665;27;20498;-66
2022/04/05 04:01:52;;;;;;;5.10;1.92;;;6.60;99.90;;;;;;5155820;27;20054;-68
2022/04/05 04:04:17;;;;;;;4.30;1.63;;;6.60;99.90;;;;;;5154094;27;20475;-66
2022/04/05 04:06:44;;;;;;;7.78;2.20;;;6.60;99.90;;;;;;5127500;27;20060;-68
2022/04/05 04:09:11;;;;;;;9.57;2.33;;;6.60;99.90;;;;;;5120471;27;20050;-67
2022/04/05 04:11:40;;;;;;;4.72;1.73;;;6.60;99.90;;;;;;5118854;27;20066;-68
2022/04/05 04:14:06;;;;;;;6.15;2.33;;;6.60;99.90;;;;;;5138573;27;20051;-67
2022/04/05 04:16:32;;;;;;;7.15;1.80;;;6.60;99.90;;;;;;5118929;27;20479;-67
2022/04/05 04:18:57;;;;;;;7.40;1.58;;;6.60;99.90;;;;;;5130738;27;20051;-67
2022/04/05 04:21:23;;;;;;;6.30;2.17;;;6.60;99.90;;;;;;5119230;27;20039;-66
2022/04/05 04:23:48;;;;;;;5.97;2.03;;;6.60;99.90;;;;;;5129458;27;20061;-70
2022/04/05 04:26:14;;;;;;;6.65;1.90;;;6.60;99.90;;;;;;5119494;27;20079;-68
2022/04/05 04:28:39;;;;;;;5.68;1.75;;;6.60;99.90;;;;;;5102680;27;20053;-65
2022/04/05 04:31:05;;;;;;;10.90;2.70;;;6.60;99.90;;;;;;5152833;27;20050;-66
2022/04/05 04:33:31;;;;;;;4.80;2.10;;;6.50;99.90;;;;;;5152275;27;20047;-67
2022/04/05 04:35:57;;;;;;;7.97;2.53;;;6.50;99.90;;;;;;5137726;27;20054;-67
2022/04/05 04:38:23;;;;;;;5.57;2.03;;;6.60;99.90;;;;;;5124524;27;20129;-69
2022/04/05 04:40:52;;;;;;;9.05;2.20;;;6.50;99.90;;;;;;5153066;27;20134;-67
2022/04/05 04:43:19;;;;;;;6.82;2.33;;;6.60;99.90;;;;;;5131084;27;20074;-67
2022/04/05 04:45:45;;;;;;;5.38;2.50;;;6.50;99.90;;;;;;5110390;27;20058;-68
2022/04/05 04:48:12;;;;;;;5.07;1.88;;;6.50;99.90;;;;;;5135933;27;20485;-68
2022/04/05 04:50:37;;;;;;;7.85;2.63;;;6.50;99.90;;;;;;5154705;27;20047;-68
2022/04/05 04:53:03;;;;;;;4.88;2.17;;;6.60;99.90;;;;;;5138436;27;20487;-68
2022/04/05 04:55:29;;;;;;;8.25;2.88;;;6.50;99.90;;;;;;5155562;27;20054;-68
2022/04/05 04:57:54;;;;;;;6.50;2.25;;;6.50;99.90;;;;;;5134664;27;20047;-69
2022/04/05 05:00:21;;;;;;;6.10;2.63;;;6.50;99.90;;;;;;5126960;27;20061;-68
2022/04/05 05:02:49;;;;;;;7.97;2.42;;;6.50;99.90;;;;;;5131657;27;20051;-68
2022/04/05 05:05:21;;;;;;;6.43;2.47;;;6.50;99.90;;;;;;5144969;27;20054;-68
2022/04/05 05:07:49;;;;;;;8.45;1.98;;;6.50;99.90;;;;;;5142147;27;20131;-68
2022/04/05 05:10:17;;;;;;;3.80;2.10;;;6.40;99.90;;;;;;5125360;27;20050;-66
2022/04/05 05:12:43;;;;;;;4.97;2.53;;;6.50;99.90;;;;;;5122603;27;20517;-68
2022/04/05 05:15:10;;;;;;;6.53;2.53;;;6.50;99.90;;;;;;5147013;27;20046;-69
2022/04/05 05:17:38;;;;;;;6.63;2.40;;;6.50;99.90;;;;;;5149040;27;20046;-68
2022/04/05 05:20:04;;;;;;;8.95;2.58;;;6.50;99.90;;;;;;5151183;27;20439;-69
2022/04/05 05:22:30;;;;;;;6.00;2.28;;;6.50;99.90;;;;;;5155787;27;20103;-68
2022/04/05 05:24:55;;;;;;;7.30;2.20;;;6.50;99.90;;;;;;5139032;27;20042;-68
2022/04/05 05:27:21;;;;;;;6.85;2.20;;;6.50;99.90;;;;;;5126634;27;20122;-68
2022/04/05 05:29:47;;;;;;;5.55;2.70;;;6.40;99.90;;;;;;5150267;27;20050;-67
2022/04/05 05:32:18;;;;;;;8.30;2.40;;;6.50;99.90;;;;;;5135824;27;20081;-68
2022/04/05 05:34:44;;;;;;;7.47;2.33;;;6.50;99.90;;;;;;5108996;27;20036;-68
2022/04/05 05:37:09;;;;;;;9.70;2.35;;;6.90;99.90;;;;;;5117226;27;20091;-68
2022/04/05 05:39:37;;;;;;;8.60;2.10;;;6.50;99.90;;;;;;5142222;27;20043;-68
2022/04/05 05:42:07;;;;;;;5.50;2.20;;;6.50;99.90;;;;;;5149634;27;20433;-68
2022/04/05 05:44:36;;;;;;;5.50;2.03;;;6.50;99.90;;;;;;5152047;27;20050;-67
2022/04/05 05:47:04;;;;;;;6.90;1.90;;;6.60;99.90;;;;;;5116110;27;20488;-69
2022/04/05 05:49:30;;;;;;;6.47;2.15;;;6.60;99.90;;;;;;5133419;27;20541;-69
2022/04/05 05:51:55;;;;;;;6.45;2.30;;;6.60;99.90;;;;;;5151635;27;20125;-68
2022/04/05 05:54:21;;;;;;;7.20;2.00;;;6.70;99.90;;;;;;5156572;27;20507;-67
2022/04/05 05:56:47;;;;;;;7.70;2.15;;;6.70;99.90;;;;;;5137818;27;20107;-67
2022/04/05 05:59:15;;;;;;;5.00;1.95;;;6.70;99.90;;;;;;5120536;27;20154;-67
2022/04/05 06:01:40;;;;;;;5.15;1.80;;;6.70;99.90;;;;;;5134390;27;20051;-67
2022/04/05 06:04:06;;;;;;;5.28;1.90;;;6.70;99.90;;;;;;5120644;27;20047;-69
2022/04/05 06:06:32;;;;;;;6.93;2.08;;;6.80;99.90;;;;;;5137164;27;20054;-65
2022/04/05 06:08:58;;;;;;;4.22;1.75;;;6.80;99.90;;;;;;5148489;27;20057;-67
2022/04/05 06:11:25;;;;;;;5.15;1.75;;;6.80;99.90;;;;;;5130525;27;20443;-66
2022/04/05 06:13:51;;;;;;;6.22;2.33;;;6.80;99.90;;;;;;5124229;27;20047;-68
2022/04/05 06:16:18;;;;;;;4.72;1.95;;;6.80;99.90;;;;;;5126496;27;20402;-67
2022/04/05 06:18:47;;;;;;;3.17;1.50;;;6.90;99.90;;;;;;5148173;27;20111;-68
2022/04/05 06:21:15;;;;;;;5.35;1.42;;;6.90;99.90;;;;;;5129324;27;20150;-67
2022/04/05 06:23:41;;;;;;;4.38;1.52;;;6.90;99.90;;;;;;5138177;27;20491;-67
2022/04/05 06:26:07;;;;;;;5.88;2.38;;;6.90;99.90;;;;;;5136334;27;20050;-66
2022/04/05 06:28:33;;;;;;;4.35;1.27;;;6.90;99.90;;;;;;5136236;27;20043;-67
2022/04/05 06:30:59;;;;;;;4.93;1.50;;;6.90;99.90;;;;;;5148984;27;20121;-69
2022/04/05 06:33:24;;;;;;;5.40;1.48;;;6.90;99.90;;;;;;5131009;27;20471;-66
2022/04/05 06:35:56;;;;;;;5.60;1.88;;;6.90;99.90;;;;;;5124021;27;20043;-68
2022/04/05 06:38:22;;;;;;;5.40;1.40;;;6.90;99.90;;;;;;5153967;27;20042;-67
2022/04/05 06:40:48;;;;;;;3.20;1.52;;;7.00;99.90;;;;;;5133536;27;20057;-65
2022/04/05 06:43:15;;;;;;;3.53;1.38;;;7.00;99.90;;;;;;5136367;27;20065;-66
2022/04/05 06:45:42;;;;;;;4.30;1.63;;;7.00;99.90;;;;;;5154814;27;20046;-68
2022/04/05 06:48:09;;;;;;;3.30;1.17;;;7.20;99.90;;;;;;5132415;27;20062;-67
2022/04/05 06:50:36;;;;;;;4.97;1.40;;;7.10;99.90;;;;;;5137381;27;20046;-68
2022/04/05 06:53:03;;;;;;;4.82;1.33;;;7.20;99.90;;;;;;5136168;27;20091;-66
2022/04/05 06:55:29;;;;;;;3.47;1.60;;;7.20;99.90;;;;;;5136884;27;20523;-66
2022/04/05 06:57:54;;;;;;;7.10;1.30;;;7.30;99.90;;;;;;5136398;27;20096;-67
2022/04/05 07:00:23;;;;;;;6.43;1.83;;;7.40;99.90;;;;;;5136140;27;20047;-69
2022/04/05 07:02:49;;;;;;;4.13;1.40;;;7.50;99.90;;;;;;5152726;27;20398;-66
2022/04/05 07:05:16;;;;;;;3.70;1.27;;;7.50;99.90;;;;;;5133125;27;20057;-65
2022/04/05 07:07:42;;;;;;;3.10;1.30;;;7.60;99.90;;;;;;5136052;27;20122;-67
2022/04/05 07:10:11;;;;;;;4.38;1.25;;;7.50;99.90;;;;;;5117398;27;20126;-65
2022/04/05 07:12:37;;;;;;;2.78;1.00;;;7.50;99.90;;;;;;5134638;27;20124;-66
2022/04/05 07:15:04;;;;;;;3.13;1.10;;;7.50;99.90;;;;;;5136293;27;20047;-69
2022/04/05 07:17:30;;;;;;;4.43;1.10;;;7.60;99.90;;;;;;5148685;27;20153;-65
2022/04/05 07:19:56;;;;;;;3.97;1.40;;;7.60;99.90;;;;;;5122094;27;20123;-67
2022/04/05 07:22:21;;;;;;;3.53;1.02;;;7.70;99.90;;;;;;5148198;27;20058;-66
2022/04/05 07:24:47;;;;;;;4.05;1.17;;;7.70;99.90;;;;;;5135957;27;20386;-67
2022/04/05 07:27:13;;;;;;;3.90;1.33;;;7.70;99.90;;;;;;5135575;27;20114;-68
2022/04/05 07:29:39;;;;;;;2.90;0.88;;;7.90;99.90;;;;;;5135789;27;20038;-68
2022/04/05 07:32:05;;;;;;;2.78;1.10;;;7.70;99.90;;;;;;5135648;27;20082;-69
2022/04/05 07:34:31;;;;;;;2.72;1.30;;;7.70;99.90;;;;;;5136668;27;20047;-66
2022/04/05 07:36:57;;;;;;;3.55;0.98;;;7.80;99.90;;;;;;5154371;27;20054;-68
2022/04/05 07:39:23;;;;;;;2.97;1.48;;;7.80;99.90;;;;;;5136383;27;20133;-67
2022/04/05 07:41:49;;;;;;;1.98;0.95;;;7.90;99.90;;;;;;5135012;27;20452;-65
2022/04/05 07:44:16;;;;;;;2.75;1.27;;;8.00;99.90;;;;;;5154490;27;20414;-67
2022/04/05 07:46:42;;;;;;;5.80;1.48;;;8.00;99.90;;;;;;5135851;27;20057;-66
2022/04/05 07:49:08;;;;;;;2.25;1.05;;;8.10;99.90;;;;;;5154066;27;20122;-66
2022/04/05 07:51:34;;;;;;;1.63;0.90;;;8.20;99.90;;;;;;5136267;27;20057;-65
2022/04/05 07:53:59;;;;;;;3.20;1.00;;;8.20;99.90;;;;;;5135775;27;20047;-66
2022/04/05 07:56:25;;;;;;;4.13;1.23;;;8.20;99.90;;;;;;5135712;27;20050;-67
2022/04/05 07:58:51;;;;;;;3.17;0.90;;;8.20;99.90;;;;;;5134582;27;20419;-67
2022/04/05 08:01:16;;;;;;;3.17;0.93;;;8.20;99.90;;;;;;5154231;27;20059;-65
2022/04/05 08:03:42;;;;;;;8.20;1.13;;;8.10;99.90;;;;;;5154411;27;20135;-66
2022/04/05 08:06:08;;;;;;;2.15;0.88;;;8.20;99.90;;;;;;5135765;27;20046;-66
2022/04/05 08:08:34;;;;;;;4.03;0.98;;;8.10;99.90;;;;;;5133933;27;20398;-67
2022/04/05 08:11:00;;;;;;;4.15;1.10;;;8.20;99.90;;;;;;5153840;27;20050;-67
2022/04/05 08:13:29;;;;;;;3.40;0.90;;;8.30;99.90;;;;;;5123088;27;20055;-66
2022/04/05 08:15:55;;;;;;;2.72;1.10;;;8.30;99.90;;;;;;5154094;27;20482;-66
2022/04/05 08:18:21;;;;;;;4.20;0.98;;;8.30;99.90;;;;;;5152703;27;20673;-66
2022/04/05 08:20:47;;;;;;;4.15;1.40;;;8.30;99.90;;;;;;5102900;28;20134;-67
2022/04/05 08:23:13;;;;;;;3.22;0.90;;;8.30;99.90;;;;;;5144683;27;20053;-67
2022/04/05 08:25:39;;;;;;;3.08;1.05;;;8.30;99.90;;;;;;5135433;27;20138;-67
2022/04/05 08:28:05;;;;;;;4.78;1.10;;;8.40;99.90;;;;;;5134719;27;20050;-67
2022/04/05 08:30:31;;;;;;;5.40;1.42;;;8.30;99.90;;;;;;5135703;27;20089;-65
2022/04/05 08:32:57;;;;;;;2.35;1.05;;;8.50;99.90;;;;;;5133406;27;20075;-66
2022/04/05 08:35:24;;;;;;;2.45;0.90;;;8.40;99.90;;;;;;5132537;27;20039;-66
2022/04/05 08:37:54;;;;;;;2.22;1.17;;;8.40;99.90;;;;;;5153974;27;20065;-66
2022/04/05 08:40:22;;;;;;;1.70;1.02;;;8.70;99.90;;;;;;5135049;27;20074;-66
2022/04/05 08:42:56;;;;;;;3.15;1.23;;;8.60;99.90;;;;;;5134666;27;20054;-66
2022/04/05 08:45:23;;;;;;;2.00;1.10;;;8.60;99.90;;;;;;5146343;27;20430;-66
2022/04/05 08:47:54;;;;;;;4.13;1.08;;;8.60;99.90;;;;;;5124642;27;20047;-66
2022/04/05 08:50:24;;;;;;;2.10;1.10;;;8.60;99.90;;;;;;5138960;27;20051;-66
2022/04/05 08:52:50;;;;;;;3.42;1.02;;;8.60;99.90;;;;;;5138953;27;20482;-67
2022/04/05 08:55:17;;;;;;;1.33;0.98;;;8.70;99.90;;;;;;5158441;27;20090;-66
2022/04/05 08:57:43;;;;;;;1.63;0.93;;;8.70;99.90;;;;;;5138930;27;20038;-66
2022/04/05 09:00:14;;;;;;;1.73;1.00;;;8.80;99.90;;;;;;5137633;27;20504;-64
2022/04/05 09:03:01;;;;;;;1.60;0.90;;;8.80;99.90;;;;;;5137793;27;20076;-66
2022/04/05 09:05:37;;;;;;;1.60;1.10;;;8.80;99.90;;;;;;5157799;27;20284;-66
2022/04/05 09:08:22;;;;;;;2.22;1.08;;;8.90;99.90;;;;;;5126203;27;20054;-66
2022/04/05 09:10:52;;;;;;;2.17;1.17;;;9.00;99.90;;;;;;5118640;27;20055;-64
2022/04/05 09:13:26;;;;;;;1.00;0.73;;;9.00;99.90;;;;;;5142838;27;20051;-67
2022/04/05 09:15:56;;;;;;;1.30;0.90;;;9.10;99.90;;;;;;5135439;27;20466;-68
2022/04/05 09:18:31;;;;;;;1.02;0.68;;;9.10;99.90;;;;;;5115518;27;20133;-68
2022/04/05 09:20:56;;;;;;;1.92;0.80;;;9.20;99.90;;;;;;5156830;27;20047;-67
2022/04/05 09:23:27;;;;;;;3.72;1.20;;;9.20;99.90;;;;;;5138182;27;20069;-66
2022/04/05 09:26:07;;;;;;;7.18;0.80;;;9.20;99.90;;;;;;5130733;27;20475;-66
2022/04/05 09:28:35;;;;;;;2.78;2.10;;;9.30;99.90;;;;;;5137677;27;20057;-67
2022/04/05 09:31:11;;;;;;;1.65;1.20;;;9.20;99.90;;;;;;5137851;27;20039;-65
2022/04/05 09:33:39;;;;;;;3.90;2.22;;;9.30;99.90;;;;;;5112597;27;20059;-67
2022/04/05 09:36:13;;;;;;;6.65;4.80;;;9.30;99.90;;;;;;5135869;27;20126;-65
2022/04/05 09:38:42;;;;;;;3.25;1.77;;;9.20;99.90;;;;;;5148077;27;20046;-67
2022/04/05 09:41:22;;;;;;;1.50;1.40;;;9.30;99.90;;;;;;5137852;27;20122;-67
2022/04/05 09:44:02;;;;;;;1.60;1.50;;;9.30;99.90;;;;;;5137889;27;20104;-66
2022/04/05 09:46:29;;;;;;;1.40;0.80;;;9.30;99.90;;;;;;5137885;27;20062;-66
2022/04/05 09:49:12;;;;;;;0.90;0.60;;;9.50;99.90;;;;;;5135145;27;20079;-66
2022/04/05 09:51:40;;;;;;;1.05;0.60;;;9.60;99.90;;;;;;5135154;27;20486;-65
2022/04/05 09:54:07;;;;;;;2.17;1.95;;;9.70;99.90;;;;;;5135630;27;20054;-67
2022/04/05 09:56:39;;;;;;;0.73;0.73;;;9.70;99.90;;;;;;5154230;27;20083;-67
2022/04/05 09:59:14;;;;;;;5.03;2.95;;;9.80;99.90;;;;;;5153113;27;20121;-67
2022/04/05 10:01:40;;;;;;;1.00;0.90;;;9.70;99.90;;;;;;5137677;27;20046;-65
2022/04/05 10:04:09;;;;;;;1.30;1.02;;;9.80;99.90;;;;;;5131099;27;20050;-67
2022/04/05 10:06:38;;;;;;;2.85;2.55;;;9.80;99.90;;;;;;5156479;27;20062;-65
2022/04/05 10:09:04;;;;;;;2.58;2.38;;;9.80;99.90;;;;;;5136914;27;20058;-67
2022/04/05 10:11:37;;;;;;;4.55;2.85;;;9.80;99.90;;;;;;5132525;27;20043;-67
2022/04/05 10:14:03;;;;;;;2.70;2.45;;;9.70;99.90;;;;;;5108502;27;20043;-66
2022/04/05 10:16:31;;;;;;;2.80;2.50;;;9.70;99.90;;;;;;5137502;27;20490;-68
2022/04/05 10:19:06;;;;;;;1.90;1.70;;;9.60;99.90;;;;;;5156174;27;20059;-66
2022/04/05 10:21:36;;;;;;;2.60;2.40;;;9.60;99.90;;;;;;5137271;27;20046;-67
2022/04/05 10:24:04;;;;;;;2.83;2.20;;;9.60;99.90;;;;;;5156400;27;20130;-65
2022/04/05 10:26:33;;;;;;;2.08;1.88;;;9.60;99.90;;;;;;5134606;27;20039;-66
2022/04/05 10:29:04;;;;;;;3.45;2.92;;;9.60;99.90;;;;;;5132242;27;20046;-66
2022/04/05 10:31:42;;;;;;;3.47;3.17;;;9.70;99.90;;;;;;5153732;27;20043;-67
2022/04/05 10:34:44;;;;;;;3.25;2.40;;;9.70;99.90;;;;;;5152224;27;20058;-67
2022/04/05 10:37:18;;;;;;;2.67;2.47;;;9.80;99.90;;;;;;5136389;27;20502;-66
2022/04/05 10:40:10;;;;;;;2.78;2.50;;;9.80;99.90;;;;;;5136854;27;20058;-65
2022/04/05 10:42:51;;;;;;;3.58;2.80;;;9.90;99.90;;;;;;5132637;27;20051;-66
2022/04/05 10:45:29;;;;;;;4.07;3.67;;;10.10;99.90;;;;;;5131354;27;20059;-64
2022/04/05 10:48:20;;;;;;;2.80;2.30;;;10.20;99.90;;;;;;5132398;27;20051;-66
2022/04/05 10:51:00;;;;;;;4.95;2.70;;;10.30;99.90;;;;;;5133054;27;20057;-68
2022/04/05 10:53:32;;;;;;;4.45;2.58;;;10.30;99.90;;;;;;5133310;27;20129;-66
2022/04/05 10:56:05;;;;;;;3.60;3.30;;;10.50;99.90;;;;;;5134099;27;20051;-66
2022/04/05 10:58:32;;;;;;;3.78;3.38;;;10.50;99.90;;;;;;5122315;27;20051;-66
2022/04/05 11:01:16;;;;;;;3.40;3.10;;;10.60;99.90;;;;;;5112636;28;20062;-67
2022/04/05 11:03:41;;;;;;;3.58;2.88;;;10.80;99.90;;;;;;5114067;28;20123;-67
2022/04/05 11:06:07;;;;;;;3.70;3.38;;;10.80;99.90;;;;;;5120619;27;20516;-65
2022/04/05 11:08:33;;;;;;;2.78;2.58;;;10.80;99.90;;;;;;5133197;27;20074;-66
2022/04/05 11:11:05;;;;;;;3.40;2.85;;;10.80;99.90;;;;;;5132923;27;20143;-67
2022/04/05 11:13:32;;;;;;;;;;;10.90;99.90;;;;;;5116177;27;20461;-64
2022/04/05 11:15:59;;;;;;;3.30;2.75;;;11.00;99.90;;;;;;5122059;27;19919;-66
2022/04/05 11:18:27;;;;;;;3.78;3.20;;;11.00;99.90;;;;;;5132374;27;20059;-68
2022/04/05 11:20:54;;;;;;;2.95;2.65;;;11.10;99.90;;;;;;5133175;27;20066;-65
2022/04/05 11:23:36;;;;;;;3.50;3.20;;;11.20;99.90;;;;;;5132435;27;20075;-68
2022/04/05 11:26:29;;;;;;;2.88;2.53;;;11.30;99.90;;;;;;5126269;27;20055;-65
2022/04/05 11:28:56;;;;;;;2.83;2.60;;;11.50;99.90;;;;;;5129146;27;20054;-67
2022/04/05 11:31:34;;;;;;;4.40;3.10;;;11.60;99.90;;;;;;5131451;27;20075;-66
2022/04/05 11:34:02;;;;;;;3.05;2.72;;;11.70;99.90;;;;;;5133868;27;20051;-65
2022/04/05 11:36:28;;;;;;;2.90;2.55;;;11.50;99.90;;;;;;5131747;27;20118;-68
2022/04/05 11:38:58;;;;;;;2.45;2.25;;;11.90;99.90;;;;;;5130489;27;20127;-65
2022/04/05 11:41:31;;;;;;;2.60;2.40;;;11.90;99.90;;;;;;5136623;27;20050;-67
2022/04/05 11:44:01;;;;;;;2.40;2.20;;;11.80;99.90;;;;;;5133241;27;20218;-66
2022/04/05 11:46:37;;;;;;;3.00;2.70;;;11.70;99.90;;;;;;5134936;27;20039;-65
2022/04/05 11:49:05;;;;;;;2.90;2.60;;;11.70;99.90;;;;;;5154066;27;20054;-66
2022/04/05 11:51:36;;;;;;;2.80;2.60;;;11.60;99.90;;;;;;5134538;27;20038;-65
2022/04/05 11:54:08;;;;;;;3.10;2.80;;;11.70;99.90;;;;;;5135590;27;20050;-68
2022/04/05 11:56:35;;;;;;;5.07;2.83;;;11.70;99.90;;;;;;5133330;27;20437;-66
2022/04/05 11:59:05;;;;;;;3.63;3.10;;;11.70;99.90;;;;;;5153872;27;20054;-67
2022/04/05 12:01:37;;;;;;;4.03;3.63;;;11.70;99.90;;;;;;5135489;27;20047;-66
2022/04/05 12:04:08;;;;;;;4.15;3.10;;;11.70;99.90;;;;;;5133227;27;20046;-64
2022/04/05 12:06:37;;;;;;;4.77;3.30;;;11.80;99.90;;;;;;5132363;28;20062;-66
2022/04/05 12:09:17;;;;;;;3.70;3.40;;;11.90;99.90;;;;;;5115094;28;20281;-66
2022/04/05 12:11:48;;;;;;;4.72;3.95;;;11.90;99.90;;;;;;5133377;28;20059;-66
2022/04/05 12:14:16;;;;;;;6.32;3.33;;;12.00;99.90;;;;;;5119262;27;20486;-66
2022/04/05 12:16:48;;;;;;;3.50;3.20;;;12.20;99.90;;;;;;5134741;27;20404;-65
2022/04/05 12:19:19;;;;;;;4.20;3.55;;;12.20;99.90;;;;;;5137905;27;20466;-66
2022/04/05 12:21:50;;;;;;;4.47;3.47;;;12.10;99.90;;;;;;5122351;27;20103;-65
2022/04/05 12:24:18;;;;;;;5.53;3.80;;;13.20;99.90;;;;;;5122302;27;20129;-67
2022/04/05 12:26:44;;;;;;;4.43;3.63;;;11.90;99.90;;;;;;5158058;27;20062;-65
2022/04/05 12:29:17;;;;;;;4.65;3.92;;;11.80;99.90;;;;;;5123126;27;20479;-67
2022/04/05 12:31:45;;;;;;;6.43;3.85;;;11.70;99.90;;;;;;5138824;27;20202;-66
2022/04/05 12:34:13;;;;;;;5.35;3.75;;;11.70;99.90;;;;;;5139427;27;20534;-65
2022/04/05 12:37:02;;;;;;;6.57;4.38;;;11.10;99.90;;;;;;5139139;27;20053;-68
2022/04/05 12:39:57;;;;;;;5.10;3.30;;;11.60;99.90;;;;;;5137372;27;20055;-65
2022/04/05 12:42:38;;;;;;;5.68;3.20;;;10.90;99.90;;;;;;5121561;27;20565;-67
2022/04/05 12:45:11;;;;;;;5.03;3.17;;;11.40;99.90;;;;;;5138558;27;20083;-65
2022/04/05 12:47:54;;;;;;;6.18;3.28;;;11.30;99.90;;;;;;5135874;27;20514;-67
2022/04/05 12:50:20;;;;;;;5.05;3.60;;;11.30;99.90;;;;;;5116210;27;20449;-66
2022/04/05 12:52:46;;;;;;;6.45;3.28;;;11.20;99.90;;;;;;5124616;27;20125;-65
2022/04/05 12:55:18;;;;;;;6.35;3.25;;;11.10;99.90;;;;;;5118417;27;20051;-67
2022/04/05 12:57:49;;;;;;;6.15;3.58;;;11.10;99.90;;;;;;5136495;27;20046;-68
2022/04/05 13:00:30;;;;;;;5.35;3.60;;;11.10;99.90;;;;;;5129834;27;20043;-66